Time;durP1;ratioP1;P1;durP2;ratioP2;P2;SDS_P1;SDS_P2;PMS_P1;PMS_P2;Temp;Humidity;BMP_temperature;BMP_pressure;BME280_temperature;BME280_humidity;BME280_pressure;Samples;Min_cycle;Max_cycle;Signal;HPM_P1;HPM_P2
2023/09/11 00:01:59;;;;;;;2.17;1.23;;;;;;;18.81;61.70;101042.38;4992187;28;20038;-92
2023/09/11 00:04:24;;;;;;;6.28;1.58;;;;;;;18.79;61.73;101038.13;4992185;28;20034;-94
2023/09/11 00:06:50;;;;;;;8.38;1.27;;;;;;;18.80;61.79;101043.41;4991542;28;20033;-91
2023/09/11 00:09:15;;;;;;;3.85;1.30;;;;;;;18.79;61.98;101035.41;4974636;28;20054;-88
2023/09/11 00:11:41;;;;;;;1.63;1.17;;;;;;;18.79;61.88;101035.41;4991836;28;20542;-90
2023/09/11 00:14:06;;;;;;;4.78;1.55;;;;;;;18.75;61.68;101036.75;4992187;28;20378;-90
2023/09/11 00:16:32;;;;;;;3.15;1.33;;;;;;;18.76;61.87;101036.59;4991937;28;20041;-90
2023/09/11 00:18:57;;;;;;;12.65;1.50;;;;;;;18.76;61.79;101030.28;4991782;28;20037;-87
2023/09/11 00:21:23;;;;;;;8.35;1.83;;;;;;;18.71;61.99;101038.13;4992871;28;20121;-88
2023/09/11 00:23:49;;;;;;;2.20;1.30;;;;;;;18.67;61.98;101031.28;4991980;28;20026;-91
2023/09/11 00:26:15;;;;;;;2.17;1.42;;;;;;;18.60;62.21;101028.38;4991401;28;20038;-89
2023/09/11 00:28:40;;;;;;;2.20;1.00;;;;;;;18.64;62.11;101026.19;4992229;28;20100;-86
2023/09/11 00:31:05;;;;;;;1.65;1.30;;;;;;;18.38;61.97;100994.41;4974647;28;20070;-87
2023/09/11 00:33:31;;;;;;;4.60;1.20;;;;;;;18.48;62.19;101014.19;4991804;28;20025;-91
2023/09/11 00:35:56;;;;;;;3.58;1.50;;;;;;;18.63;62.21;101033.50;4992261;28;20113;-91
2023/09/11 00:38:22;;;;;;;12.00;1.83;;;;;;;18.59;62.33;101026.66;4991963;28;20045;-92
2023/09/11 00:40:47;;;;;;;8.43;1.75;;;;;;;18.61;62.29;101024.63;4991413;28;20026;-85
2023/09/11 00:43:12;;;;;;;3.38;1.58;;;;;;;18.62;62.22;101014.59;4990735;28;20065;-90
2023/09/11 00:45:38;;;;;;;9.55;1.95;;;;;;;18.64;62.13;101020.72;4991044;28;20100;-91
2023/09/11 00:48:04;;;;;;;5.47;1.65;;;;;;;18.66;62.07;101021.41;4991425;28;20030;-91
2023/09/11 00:50:31;;;;;;;6.55;2.00;;;;;;;18.62;62.24;101012.72;4995931;28;20029;-91
2023/09/11 00:52:57;;;;;;;10.95;1.60;;;;;;;18.61;62.14;101011.00;5003557;28;20038;-92
2023/09/11 00:55:23;;;;;;;5.55;1.55;;;;;;;18.62;62.19;101012.72;5003269;28;20022;-84
2023/09/11 00:57:49;;;;;;;5.65;1.77;;;;;;;18.61;62.18;101012.88;4988358;28;20026;-87
2023/09/11 01:00:15;;;;;;;4.95;2.00;;;;;;;18.63;62.22;101025.31;5004028;28;20049;-91
2023/09/11 01:02:41;;;;;;;8.30;1.92;;;;;;;18.60;62.20;101019.34;4999964;28;20026;-88
2023/09/11 01:05:09;;;;;;;3.33;1.75;;;;;;;18.58;62.00;101010.50;4991141;28;20475;-89
2023/09/11 01:07:35;;;;;;;4.57;2.13;;;;;;;18.49;62.25;101001.47;4991018;28;20034;-92
2023/09/11 01:10:10;;;;;;;8.43;1.52;;;;;;;18.57;62.19;101014.22;4990955;28;20089;-91
2023/09/11 01:12:38;;;;;;;2.60;1.73;;;;;;;18.59;62.16;101012.22;4990417;28;20105;-87
2023/09/11 01:15:05;;;;;;;4.20;1.40;;;;;;;18.63;62.10;101013.56;4990641;28;20033;-92
2023/09/11 01:17:40;;;;;;;5.30;1.63;;;;;;;18.61;62.01;101015.59;4957054;28;20137;-92
2023/09/11 01:20:08;;;;;;;2.75;1.67;;;;;;;18.58;61.80;101015.94;4990602;28;20033;-87
2023/09/11 01:23:08;;;;;;;3.50;1.30;;;;;;;18.52;62.02;101016.63;4992990;28;20113;-91
2023/09/11 01:25:39;;;;;;;2.10;1.50;;;;;;;18.45;62.32;101006.34;5007571;28;20045;-80
2023/09/11 01:28:14;;;;;;;35.78;5.72;;;;;;;18.46;62.45;101008.06;5008679;28;20045;-81
2023/09/11 01:30:42;;;;;;;7.70;1.30;;;;;;;18.46;62.33;101008.06;5000319;28;20048;-88
2023/09/11 01:33:07;;;;;;;2.47;1.70;;;;;;;18.46;62.33;101008.06;5006266;28;20042;-88
2023/09/11 01:35:33;;;;;;;11.07;1.73;;;;;;;18.43;62.41;101013.00;4996977;28;20026;-92
2023/09/11 01:37:59;;;;;;;5.80;1.85;;;;;;;18.36;62.38;100992.88;4990419;28;20472;-91
2023/09/11 01:40:27;;;;;;;6.82;1.42;;;;;;;18.33;62.20;100991.34;4990790;28;20037;-92
2023/09/11 01:42:55;;;;;;;3.28;1.30;;;;;;;18.42;62.34;101009.41;4991094;28;20046;-90
2023/09/11 01:45:21;;;;;;;2.72;1.20;;;;;;;18.44;62.43;101003.78;4991039;28;20400;-89
2023/09/11 01:47:50;;;;;;;4.65;1.58;;;;;;;18.43;62.39;101007.53;4991674;28;20030;-91
2023/09/11 01:50:18;;;;;;;6.55;1.58;;;;;;;18.41;62.78;101010.41;4991147;28;20183;-90
2023/09/11 01:52:46;;;;;;;7.60;1.58;;;;;;;18.39;62.32;101012.47;4990592;28;20022;-94
2023/09/11 01:55:11;;;;;;;2.78;1.70;;;;;;;18.28;62.76;101010.06;4989720;28;20614;-91
2023/09/11 01:57:37;;;;;;;4.65;1.75;;;;;;;18.30;62.67;101010.72;4990079;28;20031;-91
2023/09/11 02:00:04;;;;;;;2.08;1.20;;;;;;;18.28;62.81;101015.50;4990444;28;20035;-87
2023/09/11 02:02:29;;;;;;;2.55;1.50;;;;;;;18.13;62.80;100992.66;4990897;28;20031;-91
2023/09/11 02:04:55;;;;;;;2.75;1.67;;;;;;;18.08;63.05;100986.81;4990319;28;20033;-91
2023/09/11 02:07:21;;;;;;;3.92;1.70;;;;;;;18.09;63.19;100993.97;4990549;28;20376;-87
2023/09/11 02:09:46;;;;;;;6.85;1.73;;;;;;;18.01;63.31;100983.03;4956166;28;20035;-92
2023/09/11 02:12:12;;;;;;;6.60;1.67;;;;;;;18.11;63.32;101007.41;4973262;28;20031;-91
2023/09/11 02:14:37;;;;;;;3.20;1.50;;;;;;;18.10;63.66;101001.16;4990917;28;20031;-89
2023/09/11 02:17:03;;;;;;;1.67;1.20;;;;;;;18.15;63.47;101009.66;4990524;28;20026;-90
2023/09/11 02:19:32;;;;;;;11.20;1.83;;;;;;;18.15;63.43;101006.94;4991485;28;20494;-87
2023/09/11 02:21:57;;;;;;;10.35;1.73;;;;;;;17.90;63.56;100958.84;4990987;28;20030;-88
2023/09/11 02:24:23;;;;;;;2.67;1.40;;;;;;;18.18;63.38;101000.31;4991842;28;20034;-95
2023/09/11 02:26:48;;;;;;;3.22;1.67;;;;;;;18.14;63.17;100998.91;4991099;28;20518;-87
2023/09/11 02:29:14;;;;;;;4.53;1.65;;;;;;;18.12;63.54;101009.13;4991742;28;20030;-91
2023/09/11 02:31:39;;;;;;;7.00;1.63;;;;;;;18.12;63.49;101004.53;4997111;28;20027;-78
2023/09/11 02:34:05;;;;;;;11.57;1.50;;;;;;;17.92;63.50;100976.72;5014373;28;20044;-79
2023/09/11 02:36:30;;;;;;;4.03;1.30;;;;;;;18.09;63.56;101009.47;4997858;28;20038;-78
2023/09/11 02:38:56;;;;;;;3.35;1.38;;;;;;;18.06;63.72;101010.63;5014289;28;20521;-89
2023/09/11 02:41:21;;;;;;;12.95;2.13;;;;;;;18.11;63.56;101010.13;5013872;28;20058;-87
2023/09/11 02:43:46;;;;;;;4.80;1.45;;;;;;;18.08;63.66;101010.47;5017634;28;20022;-90
2023/09/11 02:46:12;;;;;;;5.13;1.13;;;;;;;17.95;63.46;100991.84;4995975;28;20059;-92
2023/09/11 02:48:44;;;;;;;4.40;1.90;;;;;;;18.01;63.68;101007.53;4991592;28;20061;-88
2023/09/11 02:51:09;;;;;;;2.95;1.65;;;;;;;18.02;63.64;101014.69;4994514;28;20053;-89
2023/09/11 02:53:35;;;;;;;3.60;2.35;;;;;;;18.01;63.64;101007.53;4994268;28;20030;-93
2023/09/11 02:56:00;;;;;;;5.78;1.83;;;;;;;17.96;63.85;101009.91;4994964;28;20474;-88
2023/09/11 02:58:25;;;;;;;3.03;1.58;;;;;;;17.86;64.15;101011.88;4994819;28;20053;-87
2023/09/11 03:00:51;;;;;;;10.98;1.60;;;;;;;17.86;64.41;100998.28;4993236;28;20041;-89
2023/09/11 03:03:16;;;;;;;9.05;1.88;;;;;;;17.86;64.30;100993.69;4994006;28;20027;-88
2023/09/11 03:05:42;;;;;;;8.35;1.98;;;;;;;17.81;64.50;100997.94;4993399;28;20034;-90
2023/09/11 03:08:07;;;;;;;3.10;1.52;;;;;;;17.82;64.62;101002.38;4993827;28;20041;-92
2023/09/11 03:10:33;;;;;;;1.90;1.50;;;;;;;17.79;64.48;100995.38;4992885;28;20040;-92
2023/09/11 03:12:58;;;;;;;5.40;2.08;;;;;;;17.77;64.48;100994.66;4993745;28;20431;-91
2023/09/11 03:15:28;;;;;;;3.95;1.75;;;;;;;17.58;64.64;100972.31;4996182;28;20031;-94
2023/09/11 03:17:53;;;;;;;10.10;1.90;;;;;;;17.65;64.63;100985.09;4995096;28;20034;-92
2023/09/11 03:20:19;;;;;;;3.70;1.65;;;;;;;17.67;64.80;100998.53;4992883;28;20032;-91
2023/09/11 03:22:44;;;;;;;8.43;2.67;;;;;;;17.70;64.80;100998.22;4991726;28;20041;-85
2023/09/11 03:25:10;;;;;;;13.10;3.63;;;;;;;17.63;64.90;100991.72;4991971;28;20034;-92
2023/09/11 03:27:35;;;;;;;7.20;3.88;;;;;;;17.64;65.25;101007.88;4992438;28;20391;-89
2023/09/11 03:30:01;;;;;;;22.05;3.55;;;;;;;17.66;65.28;101002.28;4993539;28;20552;-81
2023/09/11 03:32:26;;;;;;;6.40;1.98;;;;;;;17.62;65.39;100993.56;4992071;28;20030;-89
2023/09/11 03:34:53;;;;;;;9.20;2.25;;;;;;;17.55;65.52;100988.94;4975096;28;20029;-87
2023/09/11 03:37:21;;;;;;;6.55;2.00;;;;;;;17.64;65.67;101005.16;4995262;28;20483;-90
2023/09/11 03:39:46;;;;;;;10.57;2.53;;;;;;;17.63;65.65;101010.75;4994890;28;20038;-85
2023/09/11 03:42:12;;;;;;;11.88;3.22;;;;;;;17.58;65.67;101004.94;4996986;28;20045;-87
2023/09/11 03:44:37;;;;;;;14.43;3.83;;;;;;;17.49;65.99;101005.88;4944824;28;20129;-85
2023/09/11 03:47:03;;;;;;;18.60;3.13;;;;;;;17.55;66.10;101010.72;4997846;28;20050;-90
2023/09/11 03:49:28;;;;;;;8.48;2.78;;;;;;;17.50;66.17;101007.56;4996760;28;20029;-88
2023/09/11 03:51:54;;;;;;;6.40;2.88;;;;;;;17.54;66.26;101025.28;4992270;28;20036;-89
2023/09/11 03:54:19;;;;;;;10.18;2.80;;;;;;;17.54;66.36;101014.41;4957336;28;20034;-89
2023/09/11 03:56:45;;;;;;;10.70;3.75;;;;;;;17.48;66.53;101024.06;4992806;28;20805;-90
2023/09/11 03:59:10;;;;;;;14.13;3.38;;;;;;;17.43;66.60;101019.09;4991965;28;20030;-87
2023/09/11 04:01:35;;;;;;;13.70;3.47;;;;;;;17.32;66.68;101000.31;4991287;28;20349;-87
2023/09/11 04:04:01;;;;;;;10.52;2.25;;;;;;;17.37;66.96;101008.84;4991868;28;20487;-88
2023/09/11 04:06:26;;;;;;;30.70;4.25;;;;;;;17.44;67.08;101019.94;4975224;28;20093;-84
2023/09/11 04:08:52;;;;;;;12.50;3.05;;;;;;;17.43;66.89;101024.53;4992065;28;20156;-88
2023/09/11 04:11:19;;;;;;;13.52;2.13;;;;;;;17.42;67.00;101033.72;4941597;28;20121;-85
2023/09/11 04:13:44;;;;;;;12.85;3.50;;;;;;;17.48;67.03;101031.34;4992187;28;20026;-87
2023/09/11 04:16:10;;;;;;;16.25;3.22;;;;;;;17.55;66.77;101027.03;4993059;28;20034;-90
2023/09/11 04:18:36;;;;;;;9.93;3.10;;;;;;;17.54;66.75;101033.44;4942325;28;20034;-83
2023/09/11 04:21:04;;;;;;;19.10;3.28;;;;;;;17.41;66.66;101003.94;4993413;28;20387;-86
2023/09/11 04:23:29;;;;;;;10.05;2.78;;;;;;;17.49;66.78;101020.31;4993572;28;20033;-85
2023/09/11 04:25:55;;;;;;;7.15;2.45;;;;;;;17.56;66.78;101029.56;4993843;28;20477;-90
2023/09/11 04:28:21;;;;;;;53.83;5.18;;;;;;;17.60;66.58;101020.09;4993630;28;20033;-86
2023/09/11 04:30:46;;;;;;;18.17;3.15;;;;;;;17.64;66.60;101020.63;4993015;28;20483;-88
2023/09/11 04:33:12;;;;;;;9.68;3.15;;;;;;;17.65;66.70;101027.75;4974692;28;20045;-87
2023/09/11 04:35:37;;;;;;;6.13;2.28;;;;;;;17.64;66.61;101026.06;4992574;28;20030;-89
2023/09/11 04:38:02;;;;;;;33.67;3.88;;;;;;;17.63;66.67;101027.94;4992448;28;20037;-86
2023/09/11 04:40:28;;;;;;;29.63;4.85;;;;;;;17.64;66.82;101031.50;4992283;28;20105;-87
2023/09/11 04:42:53;;;;;;;19.10;4.10;;;;;;;17.64;66.74;101023.34;4992718;28;20030;-86
2023/09/11 04:45:19;;;;;;;20.88;3.47;;;;;;;17.71;66.85;101024.38;4991216;28;20042;-87
2023/09/11 04:47:44;;;;;;;9.65;2.60;;;;;;;17.74;66.63;101024.94;4992874;28;20045;-87
2023/09/11 04:50:10;;;;;;;22.10;3.55;;;;;;;17.79;66.49;101030.75;4993105;28;20538;-82
2023/09/11 04:52:35;;;;;;;18.80;3.85;;;;;;;17.81;66.54;101036.03;4992304;28;20060;-90
2023/09/11 04:55:01;;;;;;;30.75;4.72;;;;;;;17.85;66.43;101019.22;4992454;28;20054;-87
2023/09/11 04:57:26;;;;;;;14.95;3.97;;;;;;;17.90;66.17;101016.84;4992567;28;20030;-89
2023/09/11 04:59:52;;;;;;;15.55;3.45;;;;;;;18.08;65.63;101032.25;4991621;28;20040;-88
2023/09/11 05:02:17;;;;;;;15.65;2.60;;;;;;;18.08;65.60;101024.06;4991522;28;20035;-87
2023/09/11 05:04:46;;;;;;;10.13;2.67;;;;;;;18.10;65.67;101014.75;4993207;28;20026;-88
2023/09/11 05:07:11;;;;;;;14.88;3.00;;;;;;;18.29;65.24;101036.25;4991963;28;20041;-88
2023/09/11 05:09:39;;;;;;;13.27;2.58;;;;;;;18.25;65.12;101014.97;4991421;28;20026;-89
2023/09/11 05:12:05;;;;;;;10.55;2.67;;;;;;;18.39;64.96;101022.50;4991279;28;20400;-85
2023/09/11 05:14:30;;;;;;;14.82;3.08;;;;;;;18.39;64.88;101012.47;4990120;28;20037;-91
2023/09/11 05:16:56;;;;;;;9.85;2.50;;;;;;;18.48;64.67;101030.53;4991832;28;20018;-88
2023/09/11 05:19:21;;;;;;;10.77;3.05;;;;;;;18.57;64.65;101025.97;4990772;28;20467;-87
2023/09/11 05:21:47;;;;;;;108.07;12.45;;;;;;;18.62;64.60;101029.09;4991223;28;20085;-89
2023/09/11 05:24:12;;;;;;;13.20;3.75;;;;;;;18.54;64.09;100998.22;4990719;28;20034;-89
2023/09/11 05:26:38;;;;;;;23.58;3.50;;;;;;;18.74;64.03;101030.47;4990943;28;20034;-85
2023/09/11 05:29:04;;;;;;;14.80;3.88;;;;;;;18.77;64.12;101021.09;4991670;28;20380;-92
2023/09/11 05:31:29;;;;;;;12.23;3.20;;;;;;;18.82;63.66;101024.16;4991025;28;20510;-91
2023/09/11 05:33:54;;;;;;;8.75;2.90;;;;;;;18.87;63.82;101021.78;5000382;28;20035;-85
2023/09/11 05:36:20;;;;;;;14.93;3.05;;;;;;;18.73;63.92;100990.59;4996566;28;20118;-88
2023/09/11 05:38:47;;;;;;;30.83;3.30;;;;;;;18.88;63.31;100999.81;4989644;28;20058;-84
2023/09/11 05:41:15;;;;;;;9.10;3.38;;;;;;;19.03;63.46;101025.38;4991203;28;20038;-89
2023/09/11 05:43:42;;;;;;;10.40;3.83;;;;;;;19.14;63.24;101029.66;4972631;28;20607;-88
2023/09/11 05:46:08;;;;;;;14.15;3.03;;;;;;;19.22;63.08;101028.78;4990526;28;20046;-92
2023/09/11 05:48:33;;;;;;;15.68;4.10;;;;;;;19.24;62.89;101019.41;4993016;28;20522;-90
2023/09/11 05:51:00;;;;;;;13.18;3.03;;;;;;;19.41;62.72;101037.50;4993402;28;20026;-89
2023/09/11 05:53:26;;;;;;;13.88;3.38;;;;;;;19.47;62.52;101025.06;4992006;28;20029;-89
2023/09/11 05:55:51;;;;;;;13.25;3.58;;;;;;;19.57;62.35;101033.06;4991405;28;20034;-89
2023/09/11 05:58:17;;;;;;;52.08;8.50;;;;;;;19.68;62.26;101027.22;4993048;28;20033;-92
2023/09/11 06:00:42;;;;;;;13.02;3.08;;;;;;;19.68;61.81;101027.22;4991495;28;20069;-92
2023/09/11 06:03:08;;;;;;;6.22;2.55;;;;;;;19.87;61.65;101035.91;4991110;28;20022;-89
2023/09/11 06:05:39;;;;;;;11.75;2.95;;;;;;;19.99;61.38;101050.00;4991037;28;20099;-86
2023/09/11 06:08:05;;;;;;;20.20;2.80;;;;;;;20.00;61.29;101059.88;4975028;28;20026;-88
2023/09/11 06:10:30;;;;;;;13.00;3.05;;;;;;;20.03;61.08;101045.88;4996310;28;20092;-88
2023/09/11 06:12:56;;;;;;;11.27;2.90;;;;;;;20.15;61.13;101054.56;4988783;28;20038;-91
2023/09/11 06:15:22;;;;;;;14.65;2.33;;;;;;;20.22;60.77;101053.69;4972947;28;20035;-88
2023/09/11 06:17:47;;;;;;;12.45;2.50;;;;;;;20.11;60.59;101029.50;4991321;28;20479;-92
2023/09/11 06:20:15;;;;;;;7.10;2.10;;;;;;;20.33;60.54;101047.88;4991555;28;20038;-84
2023/09/11 06:22:41;;;;;;;12.27;2.78;;;;;;;20.48;60.39;101059.75;4992700;28;20027;-83
2023/09/11 06:25:07;;;;;;;13.98;3.00;;;;;;;20.60;60.02;101041.06;4995505;28;20080;-88
2023/09/11 06:27:34;;;;;;;8.88;2.92;;;;;;;20.79;59.80;101057.03;4996692;28;20022;-90
2023/09/11 06:29:59;;;;;;;14.45;2.55;;;;;;;20.94;59.02;101047.00;5002266;28;20371;-88
2023/09/11 06:32:25;;;;;;;27.67;3.95;;;;;;;21.07;58.55;101049.97;5000244;28;20026;-90
2023/09/11 06:34:50;;;;;;;10.27;2.60;;;;;;;21.06;57.83;101020.06;5002646;28;20113;-87
2023/09/11 06:37:15;;;;;;;10.45;2.17;;;;;;;21.15;57.27;101019.00;4983828;28;20038;-81
2023/09/11 06:39:41;;;;;;;8.02;2.85;;;;;;;21.38;57.42;101044.44;4998807;28;20030;-87
2023/09/11 06:42:06;;;;;;;24.95;2.95;;;;;;;21.45;57.32;101037.19;4997299;28;20117;-89
2023/09/11 06:44:32;;;;;;;14.25;2.65;;;;;;;21.60;56.79;101057.25;4995595;28;20080;-89
2023/09/11 06:46:57;;;;;;;7.60;2.03;;;;;;;21.70;56.65;101052.38;4964593;28;20117;-84
2023/09/11 06:49:23;;;;;;;16.35;2.45;;;;;;;21.83;55.17;101042.66;5016129;28;20030;-78
2023/09/11 06:51:48;;;;;;;32.15;2.92;;;;;;;21.98;54.62;101054.50;5004886;28;20062;-84
2023/09/11 06:54:13;;;;;;;11.55;1.77;;;;;;;22.09;53.28;101056.75;4998369;28;20052;-87
2023/09/11 06:56:42;;;;;;;9.77;1.98;;;;;;;22.04;52.45;101031.81;5009108;28;20041;-89
2023/09/11 06:59:08;;;;;;;76.35;8.77;;;;;;;22.30;51.99;101056.84;5002628;28;20041;-88
2023/09/11 07:01:38;;;;;;;22.50;5.97;;;;;;;22.40;52.17;101051.91;5002845;28;20027;-89
2023/09/11 07:04:11;;;;;;;13.82;4.95;;;;;;;22.39;51.31;101041.13;5001104;28;20082;-85
2023/09/11 07:06:40;;;;;;;12.30;4.75;;;;;;;22.57;51.02;101067.09;5013235;28;20018;-84
2023/09/11 07:09:09;;;;;;;34.15;11.32;;;;;;;22.65;50.55;101064.31;5012050;28;20026;-86
2023/09/11 07:11:35;;;;;;;26.35;7.38;;;;;;;22.74;49.91;101063.16;5015584;28;20037;-81
2023/09/11 07:14:01;;;;;;;13.27;4.25;;;;;;;22.87;49.46;101061.59;5014748;28;20043;-87
2023/09/11 07:16:27;;;;;;;19.05;4.00;;;;;;;22.91;49.48;101069.22;5014808;28;20030;-84
2023/09/11 07:18:52;;;;;;;37.95;11.13;;;;;;;22.95;48.89;101048.59;5002996;28;20584;-86
2023/09/11 07:21:18;;;;;;;21.73;6.90;;;;;;;23.12;48.23;101065.63;5004605;28;20054;-79
2023/09/11 07:23:44;;;;;;;5.15;2.13;;;;;;;23.16;48.50;101062.31;5017009;28;20049;-79
2023/09/11 07:26:09;;;;;;;10.88;3.42;;;;;;;23.24;48.63;101059.44;5017197;28;20073;-78
2023/09/11 07:28:54;;;;;;;3.30;1.63;;;;;;;23.33;48.01;101062.91;5016660;28;20049;-81
2023/09/11 07:31:20;;;;;;;9.68;3.20;;;;;;;23.40;48.04;101050.13;5018234;28;20038;-83
2023/09/11 07:33:45;;;;;;;15.82;4.00;;;;;;;23.49;46.72;101061.78;5018233;28;20026;-89
2023/09/11 07:36:10;;;;;;;22.70;5.00;;;;;;;23.62;47.00;101057.28;5006697;28;20042;-90
2023/09/11 07:38:36;;;;;;;12.32;5.07;;;;;;;23.77;46.04;101052.53;4995925;28;20411;-87
2023/09/11 07:41:01;;;;;;;12.98;2.20;;;;;;;23.56;45.85;101013.28;4995551;28;20053;-90
2023/09/11 07:43:27;;;;;;;6.53;1.85;;;;;;;23.85;45.59;101055.13;4995580;28;20072;-91
2023/09/11 07:45:52;;;;;;;17.20;4.65;;;;;;;23.87;45.85;101048.59;4997456;28;20106;-87
2023/09/11 07:48:18;;;;;;;11.30;2.45;;;;;;;23.95;45.49;101062.16;5001779;28;20022;-83
2023/09/11 07:50:43;;;;;;;18.83;2.22;;;;;;;23.93;44.45;101054.13;5000534;28;20026;-89
2023/09/11 07:53:08;;;;;;;14.55;3.45;;;;;;;23.84;45.06;101055.34;4998706;28;20061;-85
2023/09/11 07:55:37;;;;;;;12.10;2.83;;;;;;;23.80;44.82;101049.38;4997273;28;20026;-83
2023/09/11 07:58:03;;;;;;;20.95;3.40;;;;;;;23.87;44.42;101052.19;4980466;28;20062;-88
2023/09/11 08:00:30;;;;;;;7.90;2.63;;;;;;;23.90;44.30;101054.53;4999834;28;20030;-87
2023/09/11 08:02:56;;;;;;;8.38;2.25;;;;;;;23.89;44.33;101035.47;4999462;28;20569;-88
2023/09/11 08:05:22;;;;;;;3.10;1.52;;;;;;;23.96;43.57;101030.88;4994218;28;20049;-89
2023/09/11 08:07:50;;;;;;;9.52;1.88;;;;;;;24.21;43.92;101046.72;4983531;28;20499;-88
2023/09/11 08:10:16;;;;;;;14.40;1.75;;;;;;;24.17;43.86;101033.56;4995484;28;20026;-86
2023/09/11 08:12:41;;;;;;;4.95;1.90;;;;;;;24.16;43.56;101027.22;4993050;28;20053;-91
2023/09/11 08:15:07;;;;;;;4.63;1.55;;;;;;;24.18;43.33;101049.03;4992658;28;20034;-90
2023/09/11 08:17:33;;;;;;;15.98;3.35;;;;;;;24.12;43.21;101058.09;4994398;28;20041;-87
2023/09/11 08:19:58;;;;;;;22.90;3.70;;;;;;;24.18;43.52;101051.78;4995353;28;20022;-85
2023/09/11 08:22:24;;;;;;;4.60;1.88;;;;;;;24.17;43.54;101028.06;4997775;28;20034;-92
2023/09/11 08:24:49;;;;;;;70.38;10.25;;;;;;;24.30;42.83;101050.16;4998410;28;20038;-90
2023/09/11 08:27:15;;;;;;;12.82;1.73;;;;;;;24.29;42.35;101048.44;4997081;28;20045;-88
2023/09/11 08:29:40;;;;;;;8.50;1.95;;;;;;;24.22;42.87;101031.06;4995496;28;20457;-83
2023/09/11 08:32:06;;;;;;;9.18;2.50;;;;;;;24.31;43.01;101032.59;4996007;28;20034;-87
2023/09/11 08:34:31;;;;;;;10.73;2.10;;;;;;;24.36;43.18;101033.69;4994781;28;20031;-89
2023/09/11 08:36:57;;;;;;;6.97;2.47;;;;;;;24.42;43.05;101037.50;4975065;28;20022;-90
2023/09/11 08:39:23;;;;;;;27.50;4.50;;;;;;;24.45;43.09;101031.59;4974438;28;20030;-87
2023/09/11 08:41:51;;;;;;;4.95;2.55;;;;;;;24.56;43.13;101036.50;4991453;28;20105;-90
2023/09/11 08:44:17;;;;;;;6.80;2.05;;;;;;;24.58;42.52;101034.41;4992902;28;20498;-85
2023/09/11 08:46:45;;;;;;;20.25;2.33;;;;;;;24.57;42.71;101032.72;4992422;28;20050;-91
2023/09/11 08:49:15;;;;;;;4.45;2.20;;;;;;;24.62;42.83;101038.44;4991994;28;20026;-90
2023/09/11 08:51:48;;;;;;;12.55;1.83;;;;;;;24.72;42.20;101033.38;4981567;28;20030;-88
2023/09/11 08:54:16;;;;;;;18.30;3.85;;;;;;;24.68;42.28;101010.09;4992412;28;20026;-90
2023/09/11 08:56:43;;;;;;;5.18;1.95;;;;;;;24.66;42.89;101012.22;4993210;28;20030;-91
2023/09/11 08:59:11;;;;;;;8.73;2.22;;;;;;;24.84;41.20;101028.16;4992763;28;20959;-92
2023/09/11 09:01:38;;;;;;;17.15;2.75;;;;;;;24.92;41.98;101027.97;4956929;28;20042;-89
2023/09/11 09:04:04;;;;;;;2.47;1.75;;;;;;;24.79;41.10;101016.91;4991036;28;20030;-89
2023/09/11 09:06:33;;;;;;;13.52;2.13;;;;;;;24.68;40.36;100998.22;4985476;28;20049;-89
2023/09/11 09:08:59;;;;;;;9.05;2.03;;;;;;;24.74;40.93;100998.25;4989569;28;20019;-83
2023/09/11 09:11:26;;;;;;;16.40;3.67;;;;;;;24.89;40.85;101011.88;4972445;28;20038;-82
2023/09/11 09:13:52;;;;;;;18.83;3.28;;;;;;;24.96;40.66;101001.72;4990691;28;20034;-83
2023/09/11 09:16:17;;;;;;;19.75;2.97;;;;;;;25.05;40.84;100999.59;4989593;28;20116;-84
2023/09/11 09:18:49;;;;;;;7.30;2.40;;;;;;;24.89;42.48;100973.38;4990064;28;20082;-82
2023/09/11 09:21:25;;;;;;;14.40;2.70;;;;;;;24.88;42.63;100975.25;4972505;28;20022;-82
2023/09/11 09:23:52;;;;;;;38.65;5.07;;;;;;;25.11;43.16;100987.75;4990062;28;20031;-80
2023/09/11 09:26:17;;;;;;;14.07;2.95;;;;;;;25.10;43.52;100988.84;4990577;28;20038;-84
2023/09/11 09:28:44;;;;;;;17.63;2.63;;;;;;;25.14;43.96;100984.56;4990845;28;20081;-81
2023/09/11 09:31:12;;;;;;;16.98;8.05;;;;;;;25.21;44.07;100971.69;4990275;28;20561;-80
2023/09/11 09:33:38;;;;;;;8.57;4.07;;;;;;;25.38;44.17;100984.78;4989939;28;20026;-82
2023/09/11 09:36:06;;;;;;;8.88;4.10;;;;;;;25.56;43.93;100975.09;4990182;28;20030;-82
2023/09/11 09:38:32;;;;;;;8.43;2.97;;;;;;;25.37;43.97;100939.06;4989871;28;20030;-81
2023/09/11 09:41:07;;;;;;;9.95;3.55;;;;;;;25.59;43.64;100958.97;4990098;28;20479;-82
2023/09/11 09:43:32;;;;;;;16.23;3.47;;;;;;;25.78;43.73;100965.47;4989334;28;20027;-84
2023/09/11 09:45:58;;;;;;;9.02;2.88;;;;;;;25.68;43.37;100967.84;4987624;28;20106;-80
2023/09/11 09:48:24;;;;;;;10.73;3.22;;;;;;;25.70;43.66;100955.56;4989447;28;20027;-85
2023/09/11 09:50:59;;;;;;;6.35;2.45;;;;;;;25.59;43.97;100953.47;4990611;28;20042;-89
2023/09/11 09:53:34;;;;;;;20.00;3.35;;;;;;;25.58;44.18;100953.66;4967596;28;20042;-83
2023/09/11 09:56:04;;;;;;;19.63;5.38;;;;;;;25.63;44.28;100943.69;4989553;28;20030;-84
2023/09/11 09:58:34;;;;;;;10.45;2.65;;;;;;;25.50;44.69;100931.88;4989527;28;20023;-85
2023/09/11 10:01:13;;;;;;;6.00;3.15;;;;;;;25.62;44.85;100950.28;4993072;28;20041;-83
2023/09/11 10:03:44;;;;;;;12.30;3.22;;;;;;;25.69;44.76;100958.50;4988449;28;20053;-79
2023/09/11 10:06:14;;;;;;;11.88;3.28;;;;;;;25.62;44.68;100942.03;4994375;28;20108;-81
2023/09/11 10:08:40;;;;;;;26.85;4.07;;;;;;;25.56;44.60;100920.84;4990111;28;20023;-82
2023/09/11 10:11:06;;;;;;;12.20;2.83;;;;;;;25.72;44.68;100958.06;4979173;28;20112;-84
2023/09/11 10:13:35;;;;;;;9.77;2.50;;;;;;;25.56;44.94;100948.38;4994137;28;20036;-90
2023/09/11 10:16:00;;;;;;;12.68;2.72;;;;;;;25.60;45.01;100944.13;4994228;28;20034;-87
2023/09/11 10:18:30;;;;;;;12.90;3.35;;;;;;;25.64;44.94;100948.16;4990695;28;20030;-87
2023/09/11 10:20:57;;;;;;;4.85;2.53;;;;;;;25.53;45.42;100926.78;4994217;28;20056;-88
2023/09/11 10:23:23;;;;;;;16.67;2.70;;;;;;;25.74;44.98;100962.34;4994550;28;20387;-86
2023/09/11 10:25:53;;;;;;;10.50;2.78;;;;;;;25.71;44.86;100951.75;4994050;28;20037;-86
2023/09/11 10:28:26;;;;;;;3.92;2.10;;;;;;;25.79;44.92;100957.00;4992959;28;20030;-86
2023/09/11 10:31:13;;;;;;;11.50;3.67;;;;;;;25.90;44.89;100952.75;4994970;28;20049;-91
2023/09/11 10:33:39;;;;;;;18.02;4.43;;;;;;;25.99;44.71;100960.53;4994443;28;20038;-85
2023/09/11 10:36:10;;;;;;;17.73;3.33;;;;;;;26.06;44.58;100954.16;4995055;28;20030;-90
2023/09/11 10:38:36;;;;;;;10.38;2.70;;;;;;;26.13;44.27;100949.47;4993773;28;20041;-87
2023/09/11 10:41:04;;;;;;;5.93;2.30;;;;;;;26.03;44.20;100951.84;4994506;28;20502;-86
2023/09/11 10:43:30;;;;;;;6.25;2.63;;;;;;;25.79;43.79;100903.81;4993488;28;20442;-85
2023/09/11 10:45:55;;;;;;;8.98;3.20;;;;;;;25.90;44.39;100933.47;4996928;28;20110;-89
2023/09/11 10:48:31;;;;;;;10.00;2.90;;;;;;;26.03;44.40;100954.59;4995965;28;20034;-88
2023/09/11 10:50:58;;;;;;;12.63;3.35;;;;;;;26.05;44.69;100946.97;4994998;28;20018;-87
2023/09/11 10:53:31;;;;;;;8.13;2.95;;;;;;;25.84;44.94;100924.13;4993908;28;20084;-85
2023/09/11 10:56:00;;;;;;;5.00;2.45;;;;;;;26.08;44.71;100952.06;4994457;28;20027;-86
2023/09/11 10:58:29;;;;;;;22.05;4.28;;;;;;;26.15;44.42;100925.28;4993860;28;20106;-82
2023/09/11 11:00:58;;;;;;;10.38;1.98;;;;;;;26.15;44.60;100936.31;4992246;28;20030;-88
2023/09/11 11:03:25;;;;;;;5.45;2.28;;;;;;;26.19;43.93;100945.88;4993618;28;20019;-83
2023/09/11 11:05:54;;;;;;;12.68;3.05;;;;;;;26.16;43.77;100915.97;4993609;28;20038;-85
2023/09/11 11:08:19;;;;;;;5.55;2.60;;;;;;;26.29;43.27;100944.34;4993802;28;20041;-87
2023/09/11 11:10:55;;;;;;;4.40;2.08;;;;;;;26.20;43.61;100925.53;4994124;28;20038;-87
2023/09/11 11:13:21;;;;;;;12.70;2.38;;;;;;;26.30;43.36;100939.66;4992552;28;20024;-87
2023/09/11 11:15:47;;;;;;;8.40;2.63;;;;;;;26.35;43.27;100924.16;4993670;28;20096;-87
2023/09/11 11:18:26;;;;;;;6.88;1.73;;;;;;;26.24;42.86;100935.88;4992763;28;20462;-87
2023/09/11 11:21:06;;;;;;;14.40;2.30;;;;;;;26.31;43.06;100928.41;4993517;28;20042;-89